Terminal Aerodrome Forecast
Issued by NWS

Home | Current Version | Previous Version | Text Only | Print | Product List | Glossary On
Versions: 1 2 3 4 5 6 7 8 9 10 11 12 13
000
FTUS42 TJSJ 072343
TAFJMZ
TAF
TJMZ 072343Z 0800/0824 07005KT P6SM FEW025
     FM081530 26010KT P6SM SCT025 BKN040
     FM082330 07005KT P6SM FEW025
      AMD NOT SKED TIL 081500=

USA.gov is the U.S. government's official web portal to all federal, state and local government web resources and services.